createdAt,value
2022-11-02T00:01:57.076Z,6.06
2022-11-02T00:04:43.656Z,6.07
2022-11-02T00:07:29.984Z,5.98
2022-11-02T00:10:16.635Z,5.96
2022-11-02T00:13:03.548Z,6.02
2022-11-02T00:15:50.115Z,6.08
2022-11-02T00:18:37.655Z,6.03
2022-11-02T00:21:25.550Z,6.14
2022-11-02T00:24:12.685Z,6.10
2022-11-02T00:26:59.411Z,6.07
2022-11-02T00:29:45.952Z,6.03
2022-11-02T00:32:32.252Z,6.00
2022-11-02T00:35:18.950Z,5.94
2022-11-02T00:38:05.927Z,5.95
2022-11-02T00:40:52.836Z,6.00
2022-11-02T00:43:39.056Z,6.01
2022-11-02T00:46:25.799Z,6.04
2022-11-02T00:49:13.045Z,6.03
2022-11-02T00:51:59.571Z,6.10
2022-11-02T00:54:48.089Z,6.08
2022-11-02T00:57:35.461Z,6.10
2022-11-02T01:00:22.433Z,6.09
2022-11-02T01:03:08.800Z,6.11
2022-11-02T01:05:55.371Z,6.24
2022-11-02T01:08:42.352Z,6.28
2022-11-02T01:11:28.833Z,6.11
2022-11-02T01:14:14.978Z,6.20
2022-11-02T01:17:01.422Z,6.24
2022-11-02T01:19:47.786Z,6.24
2022-11-02T01:22:34.082Z,6.18
2022-11-02T01:25:20.525Z,6.29
2022-11-02T01:28:07.226Z,6.38
2022-11-02T01:30:54.148Z,6.39
2022-11-02T01:33:46.891Z,6.41
2022-11-02T01:36:33.494Z,6.40
2022-11-02T01:39:20.129Z,6.34
2022-11-02T01:42:21.559Z,6.30
2022-11-02T01:45:11.568Z,6.42
2022-11-02T01:47:58.032Z,6.42
2022-11-02T01:50:44.713Z,6.40
2022-11-02T01:53:33.723Z,6.47
2022-11-02T01:59:20.999Z,6.59
2022-11-02T02:02:16.099Z,6.56
2022-11-02T02:05:08.798Z,6.49
2022-11-02T02:07:56.292Z,6.53
2022-11-02T02:10:43.175Z,6.64
2022-11-02T02:13:29.679Z,6.70
2022-11-02T02:16:21.796Z,6.62
2022-11-02T02:19:34.473Z,6.58
2022-11-02T02:22:51.163Z,6.70
2022-11-02T02:25:54.245Z,6.78
2022-11-02T02:28:51.617Z,6.73
2022-11-02T02:32:07.197Z,6.70
2022-11-02T02:35:04.111Z,6.80
2022-11-02T02:37:56.733Z,6.81
2022-11-02T02:40:58.037Z,6.78
2022-11-02T02:43:50.441Z,6.78
2022-11-02T02:46:46.543Z,6.84
2022-11-02T02:49:40.560Z,6.99
2022-11-02T02:52:28.928Z,7.07
2022-11-02T02:55:25.158Z,7.00
2022-11-02T02:58:20.065Z,6.95
2022-11-02T03:01:11.020Z,7.15
2022-11-02T03:03:57.662Z,7.21
2022-11-02T03:06:52.382Z,7.14
2022-11-02T03:09:48.938Z,7.21
2022-11-02T03:12:50.577Z,7.28
2022-11-02T03:15:54.801Z,7.33
2022-11-02T03:19:03.544Z,7.36
2022-11-02T03:22:17.441Z,7.38
2022-11-02T03:25:16.878Z,7.42
2022-11-02T03:28:17.512Z,7.50
2022-11-02T03:31:14.134Z,7.56
2022-11-02T03:34:13.450Z,7.56
2022-11-02T03:37:15.518Z,7.47
2022-11-02T03:40:17.144Z,7.48
2022-11-02T03:43:05.592Z,7.40
2022-11-02T03:45:56.078Z,7.31
2022-11-02T03:48:48.080Z,7.38
2022-11-02T03:51:39.766Z,7.44
2022-11-02T03:54:49.852Z,7.38
2022-11-02T03:57:48.824Z,7.46
2022-11-02T04:00:47.493Z,7.42
2022-11-02T04:03:38.094Z,7.36
2022-11-02T04:06:25.645Z,7.30
2022-11-02T04:09:12.593Z,7.26
2022-11-02T04:12:18.133Z,7.29
2022-11-02T04:15:05.501Z,7.30
2022-11-02T04:18:10.640Z,7.19
2022-11-02T04:20:57.386Z,7.18
2022-11-02T04:24:02.834Z,7.09
2022-11-02T04:26:49.457Z,7.13
2022-11-02T04:29:37.578Z,7.12
2022-11-02T04:32:42.926Z,7.10
2022-11-02T04:35:34.777Z,7.17
2022-11-02T04:38:40.229Z,7.12
2022-11-02T04:41:41.871Z,7.13
2022-11-02T04:44:33.964Z,7.17
2022-11-02T04:47:35.810Z,7.16
2022-11-02T04:50:22.358Z,7.25
2022-11-02T04:53:09.192Z,7.26
2022-11-02T04:55:57.949Z,7.14
2022-11-02T04:58:57.551Z,7.15
2022-11-02T05:01:44.358Z,7.15
2022-11-02T05:04:31.383Z,7.17
2022-11-02T05:07:18.139Z,7.12
2022-11-02T05:10:05.178Z,7.03
2022-11-02T05:12:58.328Z,7.08
2022-11-02T05:15:47.993Z,7.04
2022-11-02T05:18:34.560Z,7.11
2022-11-02T05:21:21.244Z,7.20
2022-11-02T05:24:09.019Z,7.36
2022-11-02T05:26:56.400Z,7.35
2022-11-02T05:29:45.431Z,7.63
2022-11-02T05:32:32.293Z,7.68
2022-11-02T05:35:20.873Z,7.85
2022-11-02T05:38:07.501Z,7.83
2022-11-02T05:40:55.885Z,7.85
2022-11-02T05:43:44.350Z,8.05
2022-11-02T05:46:33.561Z,8.13
2022-11-02T05:49:20.133Z,8.25
2022-11-02T05:52:06.694Z,8.33
2022-11-02T05:54:53.024Z,8.36
2022-11-02T05:57:39.752Z,8.53
2022-11-02T06:00:25.964Z,8.98
2022-11-02T06:03:12.188Z,9.09
2022-11-02T06:06:07.408Z,9.07
2022-11-02T06:08:54.658Z,9.08
2022-11-02T06:11:41.124Z,9.27
2022-11-02T06:14:27.339Z,9.38
2022-11-02T06:17:13.650Z,9.26
2022-11-02T06:19:59.880Z,9.27
2022-11-02T06:22:46.539Z,9.23
2022-11-02T06:25:33.022Z,9.30
2022-11-02T06:28:19.863Z,9.37
2022-11-02T06:31:06.910Z,9.38
2022-11-02T06:33:53.523Z,9.50
2022-11-02T06:36:39.751Z,9.40
2022-11-02T06:39:26.511Z,9.28
2022-11-02T06:42:13.041Z,9.39
2022-11-02T06:45:02.499Z,9.47
2022-11-02T06:47:49.159Z,9.60
2022-11-02T06:50:35.867Z,9.56
2022-11-02T06:53:22.189Z,9.65
2022-11-02T06:56:09.616Z,9.64
2022-11-02T06:58:56.044Z,9.61
2022-11-02T07:01:42.466Z,9.60
2022-11-02T07:04:28.972Z,9.59
2022-11-02T07:07:15.574Z,9.62
2022-11-02T07:10:01.738Z,9.73
2022-11-02T07:12:48.059Z,9.63
2022-11-02T07:15:34.288Z,9.58
2022-11-02T07:18:21.402Z,9.68
2022-11-02T07:21:10.405Z,9.83
2022-11-02T07:23:56.802Z,10.09
2022-11-02T07:26:43.181Z,10.07
2022-11-02T07:29:29.456Z,10.08
2022-11-02T07:32:15.699Z,10.05
2022-11-02T07:35:02.271Z,10.15
2022-11-02T07:38:00.345Z,10.19
2022-11-02T07:40:50.650Z,10.24
2022-11-02T07:43:39.941Z,10.56
2022-11-02T07:46:49.827Z,10.72
2022-11-02T07:49:36.334Z,10.81
2022-11-02T07:52:22.666Z,10.99
2022-11-02T07:55:09.248Z,11.13
2022-11-02T07:58:01.034Z,11.24
2022-11-02T08:00:47.310Z,11.31
2022-11-02T08:03:33.978Z,11.37
2022-11-02T08:06:20.360Z,11.51
2022-11-02T08:09:06.642Z,11.69
2022-11-02T08:11:53.077Z,11.76
2022-11-02T08:14:39.775Z,11.80
2022-11-02T08:17:26.144Z,11.75
2022-11-02T08:20:12.700Z,11.92
2022-11-02T08:22:59.390Z,11.95
2022-11-02T08:25:47.335Z,12.08
2022-11-02T08:28:36.640Z,12.01
2022-11-02T08:31:23.809Z,12.23
2022-11-02T08:34:12.039Z,12.35
2022-11-02T08:36:59.651Z,12.39
2022-11-02T08:39:46.326Z,12.48
2022-11-02T08:42:32.630Z,12.60
2022-11-02T08:45:19.097Z,12.68
2022-11-02T08:48:07.360Z,12.80
2022-11-02T08:50:55.739Z,12.86
2022-11-02T08:53:43.790Z,12.86
2022-11-02T08:56:33.644Z,12.91
2022-11-02T08:59:19.888Z,12.97
2022-11-02T09:02:06.754Z,13.01
2022-11-02T09:04:53.194Z,13.00
2022-11-02T09:07:39.974Z,13.11
2022-11-02T09:10:28.515Z,13.20
2022-11-02T09:13:18.358Z,13.16
2022-11-02T09:16:05.155Z,13.18
2022-11-02T09:18:51.682Z,13.25
2022-11-02T09:21:38.246Z,13.29
2022-11-02T09:24:24.629Z,13.25
2022-11-02T09:27:11.226Z,13.26
2022-11-02T09:29:57.576Z,13.29
2022-11-02T09:32:43.887Z,13.23
2022-11-02T09:35:33.533Z,13.41
2022-11-02T09:38:20.203Z,13.39
2022-11-02T09:41:39.255Z,13.38
2022-11-02T09:44:37.138Z,13.40
2022-11-02T09:48:11.221Z,13.39
2022-11-02T09:50:48.111Z,13.31
2022-11-02T09:53:52.637Z,13.40
2022-11-02T09:56:40.571Z,13.38
2022-11-02T09:59:27.677Z,13.22
2022-11-02T10:02:29.465Z,13.26
2022-11-02T10:05:48.119Z,13.24
2022-11-02T10:08:42.637Z,13.32
2022-11-02T10:11:52.390Z,13.42
2022-11-02T10:15:14.754Z,13.38
2022-11-02T10:18:03.882Z,13.26
2022-11-02T10:20:59.848Z,13.16
2022-11-02T10:23:52.254Z,13.21
2022-11-02T10:26:43.382Z,13.16
2022-11-02T10:29:48.461Z,13.15
2022-11-02T10:32:38.593Z,13.18
2022-11-02T10:35:45.775Z,13.33
2022-11-02T10:39:05.670Z,13.44
2022-11-02T10:42:06.233Z,13.46
2022-11-02T10:45:14.687Z,13.48
2022-11-02T10:48:32.305Z,13.36
2022-11-02T10:51:20.027Z,13.31
2022-11-02T10:54:13.758Z,13.24
2022-11-02T10:57:13.091Z,13.20
2022-11-02T11:00:26.749Z,13.19
2022-11-02T11:03:18.056Z,13.08
2022-11-02T11:06:05.044Z,13.14
2022-11-02T11:08:52.115Z,13.20
2022-11-02T11:11:39.040Z,13.25
2022-11-02T11:20:47.469Z,13.38
2022-11-02T11:23:33.938Z,13.51
2022-11-02T11:26:30.286Z,13.59
2022-11-02T11:29:22.809Z,13.71
2022-11-02T11:32:30.485Z,13.73
2022-11-02T11:35:20.343Z,13.88
2022-11-02T11:38:17.612Z,13.92
2022-11-02T11:41:04.726Z,13.96
2022-11-02T11:43:53.050Z,14.01
2022-11-02T11:46:52.513Z,14.18
2022-11-02T11:50:07.717Z,14.22
2022-11-02T11:53:16.502Z,14.27
2022-11-02T11:56:02.871Z,14.34
2022-11-02T11:58:52.284Z,14.33
2022-11-02T12:01:40.328Z,14.43
2022-11-02T12:04:37.453Z,14.52
2022-11-02T12:07:30.138Z,14.54
2022-11-02T12:10:19.656Z,14.55
2022-11-02T12:13:36.669Z,14.48
2022-11-02T12:17:01.977Z,14.53
2022-11-02T12:20:11.964Z,14.58
2022-11-02T12:23:01.654Z,14.58
2022-11-02T12:26:07.249Z,14.71
2022-11-02T12:29:27.854Z,14.68
2022-11-02T12:32:59.115Z,14.76
2022-11-02T12:36:05.218Z,14.77
2022-11-02T12:39:08.172Z,14.80
2022-11-02T12:42:24.907Z,14.83
2022-11-02T12:45:25.355Z,14.77
2022-11-02T12:48:21.591Z,14.78
2022-11-02T12:51:25.585Z,14.83
2022-11-02T12:54:18.227Z,14.83
2022-11-02T12:57:07.958Z,14.91
2022-11-02T13:00:00.888Z,15.03
2022-11-02T13:02:47.704Z,15.12
2022-11-02T13:05:45.962Z,15.08
2022-11-02T13:08:39.874Z,15.13
2022-11-02T13:11:34.240Z,15.19
2022-11-02T13:14:23.961Z,15.25
2022-11-02T13:17:25.314Z,15.34
2022-11-02T13:20:24.352Z,15.31
2022-11-02T13:23:33.736Z,15.22
2022-11-02T13:26:34.370Z,15.34
2022-11-02T13:29:30.599Z,15.39
2022-11-02T13:32:32.613Z,15.42
2022-11-02T13:35:33.205Z,15.41
2022-11-02T13:38:42.339Z,15.34
2022-11-02T13:41:48.309Z,15.21
2022-11-02T13:44:59.165Z,15.09
2022-11-02T13:48:07.879Z,15.00
2022-11-02T13:50:58.969Z,14.69
2022-11-02T13:53:54.207Z,14.76
2022-11-02T13:56:41.488Z,14.48
2022-11-02T13:59:32.939Z,14.58
2022-11-02T14:02:23.189Z,14.57
2022-11-02T14:05:25.265Z,14.51
2022-11-02T14:08:20.265Z,14.53
2022-11-02T14:11:23.929Z,14.43
2022-11-02T14:14:10.040Z,14.42
2022-11-02T14:16:58.651Z,14.34
2022-11-02T14:19:47.948Z,14.29
2022-11-02T14:22:34.460Z,14.19
2022-11-02T14:25:20.755Z,14.07
2022-11-02T14:28:22.503Z,14.15
2022-11-02T14:31:36.548Z,14.07
2022-11-02T14:35:00.500Z,13.95
2022-11-02T14:38:08.979Z,14.04
2022-11-02T14:41:22.704Z,13.91
2022-11-02T14:44:28.862Z,13.77
2022-11-02T14:47:17.790Z,13.92
2022-11-02T14:50:20.840Z,13.65
2022-11-02T14:53:16.187Z,13.64
2022-11-02T14:56:03.310Z,13.64
2022-11-02T14:58:54.332Z,13.68
2022-11-02T15:02:00.108Z,13.40
2022-11-02T15:04:54.221Z,13.62
2022-11-02T15:07:55.716Z,13.41
2022-11-02T15:10:45.059Z,13.50
2022-11-02T15:13:45.585Z,13.42
2022-11-02T15:16:40.076Z,13.13
2022-11-02T15:19:43.884Z,12.92
2022-11-02T15:22:38.191Z,12.76
2022-11-02T15:25:32.335Z,12.78
2022-11-02T15:28:27.680Z,12.81
2022-11-02T15:31:23.187Z,12.86
2022-11-02T15:34:20.648Z,12.74
2022-11-02T15:37:08.715Z,12.45
2022-11-02T15:39:58.745Z,12.07
2022-11-02T15:42:56.809Z,11.85
2022-11-02T15:46:00.327Z,11.83
2022-11-02T15:48:56.870Z,11.48
2022-11-02T15:51:49.682Z,11.46
2022-11-02T15:54:46.385Z,11.21
2022-11-02T15:57:50.188Z,10.98
2022-11-02T16:00:36.597Z,10.79
2022-11-02T16:03:22.715Z,10.50
2022-11-02T16:06:09.294Z,10.44
2022-11-02T16:09:01.194Z,10.39
2022-11-02T16:12:12.132Z,10.18
2022-11-02T16:15:05.719Z,10.12
2022-11-02T16:17:52.724Z,10.01
2022-11-02T16:20:40.126Z,9.93
2022-11-02T16:23:30.057Z,9.81
2022-11-02T16:26:34.841Z,9.79
2022-11-02T16:29:31.663Z,9.56
2022-11-02T16:32:18.114Z,9.54
2022-11-02T16:35:04.916Z,9.43
2022-11-02T16:37:51.250Z,9.28
2022-11-02T16:40:37.626Z,9.09
2022-11-02T16:43:26.045Z,9.21
2022-11-02T16:46:16.016Z,8.99
2022-11-02T16:49:13.487Z,8.90
2022-11-02T16:52:06.987Z,8.83
2022-11-02T16:54:53.166Z,8.79
2022-11-02T16:57:45.626Z,8.73
2022-11-02T17:00:32.296Z,8.79
2022-11-02T17:03:26.597Z,8.61
2022-11-02T17:06:13.031Z,8.60
2022-11-02T17:08:59.315Z,8.59
2022-11-02T17:11:45.826Z,8.45
2022-11-02T17:14:33.032Z,8.22
2022-11-02T17:17:22.398Z,8.40
2022-11-02T17:20:14.477Z,8.32
2022-11-02T17:23:07.181Z,8.29
2022-11-02T17:26:21.956Z,8.24
2022-11-02T17:29:26.718Z,8.13
2022-11-02T17:32:17.075Z,7.98
2022-11-02T17:35:04.871Z,7.77
2022-11-02T17:37:53.271Z,7.75
2022-11-02T17:40:39.845Z,7.67
2022-11-02T17:43:27.479Z,7.69
2022-11-02T17:46:14.086Z,7.64
2022-11-02T17:49:00.342Z,7.43
2022-11-02T17:51:47.242Z,7.52
2022-11-02T17:54:33.452Z,7.54
2022-11-02T17:57:20.812Z,7.31
2022-11-02T18:00:08.015Z,7.31
2022-11-02T18:02:58.871Z,7.26
2022-11-02T18:05:49.433Z,7.32
2022-11-02T18:08:57.024Z,7.29
2022-11-02T18:11:43.371Z,7.23
2022-11-02T18:14:29.897Z,7.04
2022-11-02T18:17:16.094Z,7.16
2022-11-02T18:20:02.500Z,6.96
2022-11-02T18:22:50.244Z,6.93
2022-11-02T18:25:36.796Z,6.92
2022-11-02T18:28:23.411Z,6.93
2022-11-02T18:31:09.685Z,6.92
2022-11-02T18:33:56.590Z,6.80
2022-11-02T18:36:43.222Z,6.69
2022-11-02T18:39:29.568Z,6.62
2022-11-02T18:42:16.138Z,6.69
2022-11-02T18:45:03.020Z,6.53
2022-11-02T18:47:49.432Z,6.66
2022-11-02T18:50:35.714Z,6.46
2022-11-02T18:53:22.050Z,6.42
2022-11-02T18:56:09.567Z,6.48
2022-11-02T18:58:56.912Z,6.39
2022-11-02T19:01:43.235Z,6.41
2022-11-02T19:04:31.080Z,6.36
2022-11-02T19:07:36.203Z,6.23
2022-11-02T19:10:22.499Z,6.09
2022-11-02T19:13:08.813Z,6.04
2022-11-02T19:15:55.504Z,6.16
2022-11-02T19:18:42.264Z,5.98
2022-11-02T19:21:28.668Z,6.05
2022-11-02T19:24:15.248Z,5.87
2022-11-02T19:27:01.535Z,5.96
2022-11-02T19:29:47.929Z,5.94
2022-11-02T19:32:34.445Z,5.84
2022-11-02T19:35:20.891Z,5.95
2022-11-02T19:38:07.144Z,5.75
2022-11-02T19:41:11.288Z,5.75
2022-11-02T19:43:57.826Z,5.82
2022-11-02T19:46:44.218Z,5.72
2022-11-02T19:49:30.523Z,5.68
2022-11-02T19:52:17.148Z,5.70
2022-11-02T19:55:03.602Z,5.35
2022-11-02T19:57:49.864Z,5.41
2022-11-02T20:00:36.238Z,5.13
2022-11-02T20:03:23.086Z,5.35
2022-11-02T20:06:12.834Z,5.50
2022-11-02T20:09:01.782Z,5.31
2022-11-02T20:11:48.478Z,5.28
2022-11-02T20:14:36.305Z,5.26
2022-11-02T20:17:32.096Z,5.22
2022-11-02T20:20:24.841Z,5.19
2022-11-02T20:23:10.893Z,5.51
2022-11-02T20:26:02.437Z,5.21
2022-11-02T20:28:49.458Z,4.98
2022-11-02T20:31:39.174Z,5.27
2022-11-02T20:34:25.688Z,5.23
2022-11-02T20:37:11.941Z,5.12
2022-11-02T20:39:58.480Z,5.17
2022-11-02T20:42:44.784Z,5.00
2022-11-02T20:45:30.994Z,5.04
2022-11-02T20:48:17.252Z,5.12
2022-11-02T20:51:04.329Z,5.19
2022-11-02T20:53:51.159Z,5.01
2022-11-02T20:56:37.543Z,5.05
2022-11-02T20:59:23.836Z,4.98
2022-11-02T21:02:11.607Z,4.95
2022-11-02T21:04:58.112Z,4.77
2022-11-02T21:07:44.320Z,4.93
2022-11-02T21:10:30.799Z,4.89
2022-11-02T21:13:35.791Z,4.91
2022-11-02T21:16:22.368Z,4.84
2022-11-02T21:19:08.767Z,4.80
2022-11-02T21:21:59.353Z,4.64
2022-11-02T21:24:46.266Z,4.79
2022-11-02T21:27:32.651Z,4.77
2022-11-02T21:30:19.306Z,4.96
2022-11-02T21:33:06.061Z,4.87
2022-11-02T21:35:54.922Z,4.72
2022-11-02T21:38:42.170Z,4.72
2022-11-02T21:41:29.483Z,4.80
2022-11-02T21:44:16.087Z,4.87
2022-11-02T21:47:02.204Z,4.89
2022-11-02T21:49:48.528Z,4.80
2022-11-02T21:52:37.043Z,4.71
2022-11-02T21:55:24.132Z,4.34
2022-11-02T21:58:10.907Z,4.35
2022-11-02T22:01:17.434Z,4.18
2022-11-02T22:04:05.397Z,4.56
2022-11-02T22:06:52.449Z,4.66
2022-11-02T22:09:38.765Z,4.39
2022-11-02T22:12:43.669Z,4.63
2022-11-02T22:15:31.353Z,4.61
2022-11-02T22:18:19.572Z,4.56
2022-11-02T22:21:06.197Z,4.58
2022-11-02T22:23:53.160Z,4.49
2022-11-02T22:26:40.247Z,4.31
2022-11-02T22:29:26.765Z,4.40
2022-11-02T22:32:14.477Z,4.05
2022-11-02T22:35:01.001Z,4.40
2022-11-02T22:38:06.269Z,4.55
2022-11-02T22:40:59.741Z,4.47
2022-11-02T22:43:46.755Z,4.33
2022-11-02T22:46:36.361Z,4.44
2022-11-02T22:49:22.538Z,4.43
2022-11-02T22:52:08.842Z,4.35
2022-11-02T22:54:55.006Z,4.43
2022-11-02T22:57:41.535Z,4.26
2022-11-02T23:00:27.810Z,4.25
2022-11-02T23:03:14.312Z,4.39
2022-11-02T23:06:01.949Z,4.19
2022-11-02T23:08:50.178Z,3.96
2022-11-02T23:11:37.548Z,4.50
2022-11-02T23:14:23.894Z,4.51
2022-11-02T23:17:10.268Z,4.43
2022-11-02T23:19:56.692Z,4.38
2022-11-02T23:22:42.902Z,4.36
2022-11-02T23:25:29.301Z,4.40
2022-11-02T23:28:34.321Z,4.37
2022-11-02T23:31:39.255Z,4.39
2022-11-02T23:34:25.470Z,4.45
2022-11-02T23:37:11.835Z,4.45
2022-11-02T23:39:58.160Z,4.45
2022-11-02T23:42:44.721Z,4.36
2022-11-02T23:45:31.281Z,4.09
2022-11-02T23:48:17.587Z,4.25
2022-11-02T23:51:22.673Z,4.10
2022-11-02T23:54:27.504Z,4.06
2022-11-02T23:57:13.726Z,4.30
2022-11-02T23:59:59.968Z,4.06
